Time;durP1;ratioP1;P1;durP2;ratioP2;P2;SDS_P1;SDS_P2;PMS_P1;PMS_P2;Temp;Humidity;BMP_temperature;BMP_pressure;BME280_temperature;BME280_humidity;BME280_pressure;Samples;Min_cycle;Max_cycle;Signal;HPM_P1;HPM_P2
2022/05/15 00:02:08;;;;;;;15.23;7.70;;;;;;;;;;5007726;28;20608;-70
2022/05/15 00:04:34;;;;;;;17.10;8.50;;;;;;;;;;5008439;28;20599;-70
2022/05/15 00:06:59;;;;;;;18.42;7.95;;;;;;;;;;5003352;28;20038;-70
2022/05/15 00:09:25;;;;;;;14.82;8.60;;;;;;;;;;5003037;28;20507;-69
2022/05/15 00:11:50;;;;;;;18.83;8.80;;;;;;;;;;5003857;28;20423;-70
2022/05/15 00:14:16;;;;;;;19.45;9.75;;;;;;;;;;5008121;28;20044;-70
2022/05/15 00:16:41;;;;;;;19.67;8.85;;;;;;;;;;5007609;28;20474;-70
2022/05/15 00:19:07;;;;;;;17.88;8.20;;;;;;;;;;5006795;28;20045;-70
2022/05/15 00:21:33;;;;;;;15.98;8.32;;;;;;;;;;5005580;28;20042;-70
2022/05/15 00:24:01;;;;;;;20.50;9.07;;;;;;;;;;5007606;28;20124;-69
2022/05/15 00:26:27;;;;;;;14.45;8.48;;;;;;;;;;5004631;28;20422;-70
2022/05/15 00:28:52;;;;;;;19.90;7.97;;;;;;;;;;5005355;28;20054;-70
2022/05/15 00:31:18;;;;;;;16.88;8.68;;;;;;;;;;5007119;28;20592;-70
2022/05/15 00:33:45;;;;;;;17.55;8.52;;;;;;;;;;5003363;28;20077;-70
2022/05/15 00:36:11;;;;;;;18.15;8.82;;;;;;;;;;5005935;28;20065;-70
2022/05/15 00:38:36;;;;;;;16.77;8.88;;;;;;;;;;5007638;28;20053;-70
2022/05/15 00:41:02;;;;;;;20.27;9.05;;;;;;;;;;5007022;28;20069;-70
2022/05/15 00:43:44;;;;;;;18.42;9.73;;;;;;;;;;5005795;28;20069;-70
2022/05/15 00:46:14;;;;;;;23.60;9.00;;;;;;;;;;5005616;28;20091;-70
2022/05/15 00:48:40;;;;;;;17.42;9.18;;;;;;;;;;5022255;28;20072;-70
2022/05/15 00:51:19;;;;;;;16.95;8.13;;;;;;;;;;5006844;28;20066;-70
2022/05/15 00:53:48;;;;;;;19.67;9.30;;;;;;;;;;5005641;28;20121;-70
2022/05/15 00:56:15;;;;;;;15.13;8.63;;;;;;;;;;5001279;28;20038;-70
2022/05/15 00:58:49;;;;;;;16.35;8.88;;;;;;;;;;5001329;28;20026;-69
2022/05/15 01:01:17;;;;;;;20.40;9.13;;;;;;;;;;5005194;28;20626;-70
2022/05/15 01:03:43;;;;;;;18.88;9.45;;;;;;;;;;5006527;28;20080;-69
2022/05/15 01:06:09;;;;;;;20.45;9.18;;;;;;;;;;5006679;28;20515;-69
2022/05/15 01:08:34;;;;;;;18.83;8.95;;;;;;;;;;5002217;28;20037;-70
2022/05/15 01:11:08;;;;;;;19.88;9.82;;;;;;;;;;5006957;28;20042;-69
2022/05/15 01:13:35;;;;;;;17.48;8.63;;;;;;;;;;5006828;28;20037;-70
2022/05/15 01:16:03;;;;;;;16.38;8.15;;;;;;;;;;5004198;28;20100;-70
2022/05/15 01:18:34;;;;;;;18.65;9.60;;;;;;;;;;5006767;28;20042;-70
2022/05/15 01:21:02;;;;;;;17.05;8.45;;;;;;;;;;5006547;28;20038;-69
2022/05/15 01:23:31;;;;;;;17.27;9.75;;;;;;;;;;5006628;28;20068;-70
2022/05/15 01:25:58;;;;;;;17.10;9.13;;;;;;;;;;5004730;28;20032;-69
2022/05/15 01:28:26;;;;;;;15.57;9.32;;;;;;;;;;5006507;28;20569;-69
2022/05/15 01:30:53;;;;;;;18.02;9.20;;;;;;;;;;5006292;28;20523;-70
2022/05/15 01:33:19;;;;;;;17.65;9.55;;;;;;;;;;5006172;28;20580;-69
2022/05/15 01:35:45;;;;;;;18.27;9.55;;;;;;;;;;5002961;28;20133;-69
2022/05/15 01:38:11;;;;;;;17.58;10.20;;;;;;;;;;5021481;28;20116;-70
2022/05/15 01:40:37;;;;;;;19.50;9.52;;;;;;;;;;5006539;28;20450;-70
2022/05/15 01:43:04;;;;;;;20.70;9.95;;;;;;;;;;5006655;28;20045;-70
2022/05/15 01:45:29;;;;;;;15.43;9.38;;;;;;;;;;5001341;28;20034;-69
2022/05/15 01:47:55;;;;;;;18.15;9.88;;;;;;;;;;5003742;28;20096;-69
2022/05/15 01:50:20;;;;;;;18.38;9.18;;;;;;;;;;4986810;28;20069;-69
2022/05/15 01:52:46;;;;;;;16.13;8.60;;;;;;;;;;5006200;28;20108;-70
2022/05/15 01:55:12;;;;;;;16.55;8.93;;;;;;;;;;5005696;28;20044;-69
2022/05/15 01:57:38;;;;;;;15.73;8.98;;;;;;;;;;5006230;28;20041;-70
2022/05/15 02:00:07;;;;;;;17.98;9.40;;;;;;;;;;5006186;28;20040;-69
2022/05/15 02:02:32;;;;;;;18.38;8.63;;;;;;;;;;5005897;28;20443;-70
2022/05/15 02:04:57;;;;;;;19.52;9.77;;;;;;;;;;5007258;28;20034;-69
2022/05/15 02:07:23;;;;;;;18.08;9.43;;;;;;;;;;5006106;28;20046;-70
2022/05/15 02:09:48;;;;;;;18.98;9.95;;;;;;;;;;5007811;28;20119;-70
2022/05/15 02:12:13;;;;;;;16.73;9.00;;;;;;;;;;5009631;28;20581;-69
2022/05/15 02:14:39;;;;;;;21.63;9.38;;;;;;;;;;5008872;28;20034;-69
2022/05/15 02:17:04;;;;;;;12.57;8.50;;;;;;;;;;5009254;28;20057;-70
2022/05/15 02:19:29;;;;;;;16.58;9.18;;;;;;;;;;5010711;28;20026;-70
2022/05/15 02:21:55;;;;;;;16.02;9.75;;;;;;;;;;5008343;28;20497;-69
2022/05/15 02:24:20;;;;;;;19.85;9.55;;;;;;;;;;5008775;28;20034;-69
2022/05/15 02:26:46;;;;;;;20.52;9.65;;;;;;;;;;5005175;28;20041;-70
2022/05/15 02:29:11;;;;;;;25.10;10.57;;;;;;;;;;5008151;28;20553;-70
2022/05/15 02:31:36;;;;;;;21.20;10.40;;;;;;;;;;5005298;28;20069;-69
2022/05/15 02:34:02;;;;;;;23.95;9.65;;;;;;;;;;5010648;28;20073;-69
2022/05/15 02:36:28;;;;;;;22.20;9.20;;;;;;;;;;5010128;28;20056;-70
2022/05/15 02:38:54;;;;;;;29.08;10.02;;;;;;;;;;5009407;28;20049;-69
2022/05/15 02:41:19;;;;;;;20.48;10.45;;;;;;;;;;5008294;28;20053;-70
2022/05/15 02:43:45;;;;;;;23.00;9.98;;;;;;;;;;5009811;28;20036;-69
2022/05/15 02:46:10;;;;;;;18.88;9.77;;;;;;;;;;5009012;28;20069;-69
2022/05/15 02:51:20;;;;;;;19.23;9.40;;;;;;;;;;5007986;28;20044;-69
2022/05/15 02:53:45;;;;;;;21.10;10.23;;;;;;;;;;5006998;28;20038;-69
2022/05/15 02:56:21;;;;;;;17.70;9.35;;;;;;;;;;5009020;28;20472;-69
2022/05/15 02:58:46;;;;;;;18.35;9.23;;;;;;;;;;5007951;28;20026;-69
2022/05/15 03:01:13;;;;;;;22.52;10.40;;;;;;;;;;5008370;28;20030;-69
2022/05/15 03:03:38;;;;;;;16.88;9.60;;;;;;;;;;5007935;28;20034;-69
2022/05/15 03:06:06;;;;;;;20.00;9.80;;;;;;;;;;5008932;28;20049;-69
2022/05/15 03:08:33;;;;;;;18.88;10.13;;;;;;;;;;5006964;28;20036;-69
2022/05/15 03:10:58;;;;;;;21.13;10.43;;;;;;;;;;5007452;28;20113;-69
2022/05/15 03:13:24;;;;;;;22.52;10.82;;;;;;;;;;5009224;28;20030;-69
2022/05/15 03:15:49;;;;;;;17.73;9.85;;;;;;;;;;5007113;28;20047;-69
2022/05/15 03:18:15;;;;;;;22.85;10.75;;;;;;;;;;5007616;28;20038;-69
2022/05/15 03:20:40;;;;;;;19.10;9.68;;;;;;;;;;5008903;28;20042;-69
2022/05/15 03:23:05;;;;;;;25.13;10.20;;;;;;;;;;5007680;28;20041;-69
2022/05/15 03:25:33;;;;;;;21.45;10.38;;;;;;;;;;5005529;28;20026;-69
2022/05/15 03:27:58;;;;;;;22.42;11.02;;;;;;;;;;5008195;28;20053;-70
2022/05/15 03:30:23;;;;;;;19.92;10.88;;;;;;;;;;5008932;28;20030;-69
2022/05/15 03:32:49;;;;;;;20.17;11.60;;;;;;;;;;5008948;28;20037;-69
2022/05/15 03:35:14;;;;;;;24.38;10.70;;;;;;;;;;5008434;28;20521;-70
2022/05/15 03:37:41;;;;;;;20.10;10.77;;;;;;;;;;5009188;28;20034;-69
2022/05/15 03:40:10;;;;;;;24.83;10.90;;;;;;;;;;5007767;28;20097;-69
2022/05/15 03:42:36;;;;;;;24.58;11.48;;;;;;;;;;5006514;28;20176;-69
2022/05/15 03:45:03;;;;;;;24.05;11.07;;;;;;;;;;5006987;28;20497;-69
2022/05/15 03:47:28;;;;;;;26.45;11.30;;;;;;;;;;5008301;28;20570;-69
2022/05/15 03:49:54;;;;;;;25.00;11.90;;;;;;;;;;5008547;28;20097;-70
2022/05/15 03:52:21;;;;;;;25.15;11.20;;;;;;;;;;5007127;28;20046;-69
2022/05/15 03:54:47;;;;;;;20.20;10.70;;;;;;;;;;5007955;28;20709;-69
2022/05/15 03:57:12;;;;;;;24.48;11.57;;;;;;;;;;5008355;28;20065;-69
2022/05/15 03:59:40;;;;;;;22.33;10.68;;;;;;;;;;5005485;28;20121;-69
2022/05/15 04:02:07;;;;;;;17.33;11.25;;;;;;;;;;5008125;28;20034;-69
2022/05/15 04:04:33;;;;;;;24.23;11.05;;;;;;;;;;5007008;28;20033;-69
2022/05/15 04:07:00;;;;;;;22.38;10.77;;;;;;;;;;5007560;28;20053;-69
2022/05/15 04:09:26;;;;;;;20.15;11.35;;;;;;;;;;5007731;28;20057;-69
2022/05/15 04:11:51;;;;;;;21.40;11.07;;;;;;;;;;5004680;28;20034;-69
2022/05/15 04:14:17;;;;;;;20.52;10.70;;;;;;;;;;5005767;28;20476;-69
2022/05/15 04:16:43;;;;;;;25.70;10.75;;;;;;;;;;5007884;28;20113;-69
2022/05/15 04:19:09;;;;;;;22.05;10.93;;;;;;;;;;5004677;28;20385;-69
2022/05/15 04:21:37;;;;;;;20.60;11.13;;;;;;;;;;5007429;28;20038;-69
2022/05/15 04:24:16;;;;;;;17.33;10.88;;;;;;;;;;5007519;28;20160;-69
2022/05/15 04:26:44;;;;;;;21.92;10.95;;;;;;;;;;5003156;28;20779;-69
2022/05/15 04:29:10;;;;;;;22.17;12.00;;;;;;;;;;5003300;28;20033;-69
2022/05/15 04:31:35;;;;;;;21.25;11.13;;;;;;;;;;5008122;28;20052;-69
2022/05/15 04:34:02;;;;;;;21.25;10.57;;;;;;;;;;5006050;28;20042;-69
2022/05/15 04:36:27;;;;;;;19.98;10.75;;;;;;;;;;5007197;28;20046;-69
2022/05/15 04:38:53;;;;;;;21.63;10.80;;;;;;;;;;5007367;28;20427;-69
2022/05/15 04:41:18;;;;;;;21.85;10.75;;;;;;;;;;5007159;28;20124;-69
2022/05/15 04:43:44;;;;;;;18.30;10.40;;;;;;;;;;5007485;28;20091;-69
2022/05/15 04:46:09;;;;;;;18.92;10.60;;;;;;;;;;5006822;28;20058;-69
2022/05/15 04:48:38;;;;;;;19.83;11.00;;;;;;;;;;5005049;28;20052;-69
2022/05/15 04:51:04;;;;;;;19.30;10.52;;;;;;;;;;5005582;28;20734;-69
2022/05/15 04:53:30;;;;;;;25.65;11.55;;;;;;;;;;5007001;28;20038;-70
2022/05/15 04:55:56;;;;;;;21.60;10.88;;;;;;;;;;5007505;28;20022;-69
2022/05/15 04:58:21;;;;;;;22.30;11.20;;;;;;;;;;5006973;28;20085;-69
2022/05/15 05:00:48;;;;;;;22.25;10.82;;;;;;;;;;4999116;28;20038;-69
2022/05/15 05:03:13;;;;;;;19.83;11.00;;;;;;;;;;4999807;28;20555;-69
2022/05/15 05:05:39;;;;;;;20.90;11.18;;;;;;;;;;5004205;28;20062;-69
2022/05/15 05:08:06;;;;;;;21.42;10.80;;;;;;;;;;5006855;28;20046;-69
2022/05/15 05:10:31;;;;;;;18.90;10.40;;;;;;;;;;5007491;28;20099;-69
2022/05/15 05:12:57;;;;;;;22.98;10.88;;;;;;;;;;5006626;28;20518;-69
2022/05/15 05:15:22;;;;;;;21.90;11.15;;;;;;;;;;5005140;28;20072;-69
2022/05/15 05:17:47;;;;;;;21.92;11.25;;;;;;;;;;5006574;28;20627;-69
2022/05/15 05:20:13;;;;;;;19.75;10.63;;;;;;;;;;5004373;28;20591;-69
2022/05/15 05:22:39;;;;;;;18.15;10.77;;;;;;;;;;5007102;28;20141;-69
2022/05/15 05:25:07;;;;;;;21.45;11.30;;;;;;;;;;5002614;28;20038;-69
2022/05/15 05:27:32;;;;;;;20.80;11.85;;;;;;;;;;5006328;28;20542;-69
2022/05/15 05:29:58;;;;;;;18.25;10.57;;;;;;;;;;5006595;28;20038;-69
2022/05/15 05:32:24;;;;;;;18.95;10.63;;;;;;;;;;5005485;28;20125;-69
2022/05/15 05:34:49;;;;;;;24.40;11.93;;;;;;;;;;5005265;28;20068;-69
2022/05/15 05:37:17;;;;;;;24.20;11.38;;;;;;;;;;5002285;28;20087;-69
2022/05/15 05:39:43;;;;;;;20.13;10.93;;;;;;;;;;5005937;28;20045;-69
2022/05/15 05:42:09;;;;;;;21.75;11.82;;;;;;;;;;5021214;28;20038;-70
2022/05/15 05:44:34;;;;;;;20.88;11.50;;;;;;;;;;5021664;28;20042;-70
2022/05/15 05:47:00;;;;;;;21.83;10.55;;;;;;;;;;5006020;28;20041;-70
2022/05/15 05:49:25;;;;;;;21.70;11.35;;;;;;;;;;5002619;28;20034;-70
2022/05/15 05:51:51;;;;;;;22.67;11.20;;;;;;;;;;5005584;28;20041;-69
2022/05/15 05:54:16;;;;;;;19.52;10.52;;;;;;;;;;5003645;28;20046;-69
2022/05/15 05:56:41;;;;;;;18.83;11.07;;;;;;;;;;5001147;28;20092;-69
2022/05/15 05:59:07;;;;;;;18.08;9.88;;;;;;;;;;4997195;28;20029;-69
2022/05/15 06:01:32;;;;;;;24.73;11.07;;;;;;;;;;5005267;28;20033;-69
2022/05/15 06:06:41;;;;;;;;;;;;;;;;;;5002824;28;20065;-70
2022/05/15 06:09:06;;;;;;;18.95;10.50;;;;;;;;;;5005823;28;19914;-69
2022/05/15 06:11:32;;;;;;;21.48;11.07;;;;;;;;;;5001824;28;20427;-69
2022/05/15 06:13:57;;;;;;;20.70;10.93;;;;;;;;;;5004612;28;20510;-70
2022/05/15 06:16:22;;;;;;;17.98;10.23;;;;;;;;;;5005720;28;20053;-70
2022/05/15 06:18:48;;;;;;;18.55;10.27;;;;;;;;;;5003849;28;20573;-69
2022/05/15 06:21:13;;;;;;;16.08;10.30;;;;;;;;;;5000908;28;20037;-69
2022/05/15 06:23:39;;;;;;;16.73;10.48;;;;;;;;;;5005445;28;20633;-69
2022/05/15 06:26:04;;;;;;;19.92;10.48;;;;;;;;;;5000749;28;20026;-69
2022/05/15 06:28:30;;;;;;;20.13;10.15;;;;;;;;;;4996056;28;20042;-69
2022/05/15 06:30:55;;;;;;;20.52;10.55;;;;;;;;;;4999579;28;20041;-69
2022/05/15 06:33:21;;;;;;;21.52;10.52;;;;;;;;;;5001217;28;20041;-69
2022/05/15 06:35:46;;;;;;;19.75;9.95;;;;;;;;;;5001454;28;20050;-70
2022/05/15 06:38:12;;;;;;;20.95;10.55;;;;;;;;;;4998572;28;20108;-69
2022/05/15 06:40:37;;;;;;;16.92;10.20;;;;;;;;;;5002848;28;20041;-70
2022/05/15 06:43:03;;;;;;;17.73;9.70;;;;;;;;;;5000736;28;20057;-70
2022/05/15 06:45:29;;;;;;;16.73;10.02;;;;;;;;;;4998088;28;20034;-70
2022/05/15 06:47:54;;;;;;;18.75;10.27;;;;;;;;;;4999825;28;20396;-69
2022/05/15 06:50:20;;;;;;;17.63;9.43;;;;;;;;;;4997016;28;20089;-70
2022/05/15 06:52:45;;;;;;;15.05;10.18;;;;;;;;;;5007028;28;20112;-70
2022/05/15 06:55:15;;;;;;;20.55;10.25;;;;;;;;;;5000825;28;20068;-70
2022/05/15 06:57:42;;;;;;;20.77;9.82;;;;;;;;;;5005760;28;20085;-69
2022/05/15 07:00:14;;;;;;;18.08;9.50;;;;;;;;;;5002645;28;20041;-69
2022/05/15 07:02:41;;;;;;;17.05;9.23;;;;;;;;;;5002411;28;20129;-70
2022/05/15 07:05:09;;;;;;;17.05;9.48;;;;;;;;;;4999940;28;20030;-70
2022/05/15 07:07:34;;;;;;;15.43;8.88;;;;;;;;;;5004739;28;20060;-69
2022/05/15 07:09:59;;;;;;;14.52;9.38;;;;;;;;;;5008017;28;20046;-70
2022/05/15 07:12:25;;;;;;;13.10;9.38;;;;;;;;;;5007481;28;20117;-70
2022/05/15 07:14:51;;;;;;;17.63;9.20;;;;;;;;;;5007288;28;20124;-69
2022/05/15 07:17:16;;;;;;;14.98;8.57;;;;;;;;;;5002256;28;20108;-69
2022/05/15 07:19:42;;;;;;;14.80;8.07;;;;;;;;;;5003041;28;20123;-69
2022/05/15 07:22:09;;;;;;;18.98;8.75;;;;;;;;;;5002000;28;20125;-69
2022/05/15 07:24:37;;;;;;;14.32;8.50;;;;;;;;;;5004307;28;20107;-70
2022/05/15 07:27:02;;;;;;;13.93;7.78;;;;;;;;;;4998744;28;20546;-70
2022/05/15 07:29:28;;;;;;;16.40;8.07;;;;;;;;;;4998809;28;20069;-70
2022/05/15 07:31:56;;;;;;;14.90;8.40;;;;;;;;;;5007480;28;20057;-70
2022/05/15 07:34:22;;;;;;;12.70;7.80;;;;;;;;;;5000557;28;20072;-70
2022/05/15 07:36:50;;;;;;;12.95;7.80;;;;;;;;;;4999815;28;20122;-70
2022/05/15 07:39:16;;;;;;;12.02;7.15;;;;;;;;;;4999426;28;20240;-70
2022/05/15 07:41:42;;;;;;;13.15;6.80;;;;;;;;;;5003854;28;20241;-70
2022/05/15 07:44:07;;;;;;;14.23;6.85;;;;;;;;;;4996086;28;20470;-70
2022/05/15 07:46:32;;;;;;;11.63;6.93;;;;;;;;;;5003254;28;20108;-70
2022/05/15 07:48:58;;;;;;;12.35;6.32;;;;;;;;;;5000896;28;20614;-70
2022/05/15 07:51:24;;;;;;;11.40;6.75;;;;;;;;;;4996702;28;20064;-70
2022/05/15 07:53:49;;;;;;;13.30;5.75;;;;;;;;;;5003625;28;20045;-70
2022/05/15 07:56:14;;;;;;;10.05;6.53;;;;;;;;;;5003763;28;20100;-70
2022/05/15 07:58:41;;;;;;;7.70;5.35;;;;;;;;;;5002350;28;20090;-70
2022/05/15 08:01:07;;;;;;;9.57;5.80;;;;;;;;;;5003906;28;20084;-70
2022/05/15 08:03:34;;;;;;;12.15;6.05;;;;;;;;;;5005588;28;20407;-70
2022/05/15 08:08:45;;;;;;;10.63;5.70;;;;;;;;;;5007475;28;20072;-70
2022/05/15 08:11:10;;;;;;;11.52;5.68;;;;;;;;;;4999489;28;20108;-70
2022/05/15 08:13:36;;;;;;;13.00;5.75;;;;;;;;;;4996701;28;20469;-70
2022/05/15 08:16:02;;;;;;;10.00;5.45;;;;;;;;;;5000252;28;20053;-70
2022/05/15 08:23:59;;;;;;;10.63;5.60;;;;;;;;;;5002641;28;20133;-69
2022/05/15 08:26:26;;;;;;;10.77;5.22;;;;;;;;;;5001657;28;20125;-70
2022/05/15 08:28:52;;;;;;;10.68;5.80;;;;;;;;;;5003140;28;20085;-70
2022/05/15 08:31:19;;;;;;;10.80;5.15;;;;;;;;;;5001133;28;20045;-70
2022/05/15 08:33:45;;;;;;;11.55;5.50;;;;;;;;;;5004456;28;20100;-70
2022/05/15 08:36:11;;;;;;;11.60;5.85;;;;;;;;;;4999861;28;20157;-70
2022/05/15 08:38:38;;;;;;;9.82;5.35;;;;;;;;;;5000956;28;20129;-70
2022/05/15 08:41:27;;;;;;;9.65;4.80;;;;;;;;;;5000808;28;20052;-70
2022/05/15 08:44:02;;;;;;;9.23;4.55;;;;;;;;;;5003018;28;20037;-70
2022/05/15 08:46:40;;;;;;;10.35;5.80;;;;;;;;;;5001276;28;20136;-70
2022/05/15 08:49:15;;;;;;;10.57;7.38;;;;;;;;;;4998294;28;20058;-69
2022/05/15 08:52:06;;;;;;;9.57;5.30;;;;;;;;;;4998238;28;20778;-71
2022/05/15 08:54:36;;;;;;;11.02;5.60;;;;;;;;;;4983229;28;20042;-70
2022/05/15 08:57:01;;;;;;;8.60;5.70;;;;;;;;;;4997647;28;20146;-70
2022/05/15 08:59:31;;;;;;;7.75;5.30;;;;;;;;;;4998695;28;20042;-70
2022/05/15 09:01:58;;;;;;;8.60;5.05;;;;;;;;;;5000386;28;20076;-70
2022/05/15 09:04:25;;;;;;;8.85;5.22;;;;;;;;;;5000402;28;20084;-70
2022/05/15 09:07:09;;;;;;;12.40;5.35;;;;;;;;;;5001553;28;20495;-70
2022/05/15 09:09:45;;;;;;;8.75;5.22;;;;;;;;;;5004882;28;20581;-70
2022/05/15 09:12:17;;;;;;;10.02;5.95;;;;;;;;;;5000421;28;20156;-70
2022/05/15 09:14:45;;;;;;;8.55;4.93;;;;;;;;;;5005129;28;20050;-70
2022/05/15 09:17:20;;;;;;;7.35;5.03;;;;;;;;;;4998519;28;20033;-70
2022/05/15 09:19:51;;;;;;;6.05;4.55;;;;;;;;;;5001251;28;20483;-70
2022/05/15 09:22:17;;;;;;;13.40;4.63;;;;;;;;;;5000838;28;20051;-70
2022/05/15 09:24:47;;;;;;;7.38;4.70;;;;;;;;;;4999884;28;20141;-70
2022/05/15 09:27:22;;;;;;;8.40;4.57;;;;;;;;;;4998900;28;20827;-70
2022/05/15 09:29:56;;;;;;;8.93;4.80;;;;;;;;;;5001074;28;20426;-70
2022/05/15 09:32:37;;;;;;;12.45;5.03;;;;;;;;;;5015931;28;20053;-70
2022/05/15 09:35:05;;;;;;;14.38;4.68;;;;;;;;;;4998064;28;20022;-71
2022/05/15 09:43:30;;;;;;;9.10;4.90;;;;;;;;;;4998598;28;20081;-70
2022/05/15 09:43:31;;;;;;;7.13;4.10;;;;;;;;;;4999225;28;20057;-70
2022/05/15 09:45:58;;;;;;;9.73;4.20;;;;;;;;;;5002437;28;20096;-71
2022/05/15 09:48:32;;;;;;;8.18;4.40;;;;;;;;;;4999917;28;20534;-70
2022/05/15 09:51:01;;;;;;;7.88;4.43;;;;;;;;;;4998871;28;20045;-70
2022/05/15 09:53:26;;;;;;;7.82;4.03;;;;;;;;;;5003290;28;20046;-70
2022/05/15 09:56:05;;;;;;;7.80;4.20;;;;;;;;;;4998183;28;20038;-70
2022/05/15 09:58:44;;;;;;;6.05;3.20;;;;;;;;;;4999537;28;20053;-70
2022/05/15 10:01:18;;;;;;;9.20;3.60;;;;;;;;;;4998796;28;20709;-70
2022/05/15 10:03:49;;;;;;;7.30;3.58;;;;;;;;;;4999355;28;20069;-70
2022/05/15 10:06:19;;;;;;;4.63;3.42;;;;;;;;;;5002214;28;20714;-70
2022/05/15 10:08:45;;;;;;;7.72;3.20;;;;;;;;;;4997550;28;20158;-70
2022/05/15 10:11:19;;;;;;;6.55;3.38;;;;;;;;;;4998150;28;20125;-70
2022/05/15 10:13:50;;;;;;;5.88;3.00;;;;;;;;;;4998372;28;20034;-70
2022/05/15 10:16:26;;;;;;;7.10;3.55;;;;;;;;;;4997482;28;20738;-70
2022/05/15 10:19:12;;;;;;;8.00;3.72;;;;;;;;;;4999676;28;20136;-70
2022/05/15 10:21:42;;;;;;;5.68;3.20;;;;;;;;;;5003227;28;20042;-70
2022/05/15 10:24:47;;;;;;;5.47;3.03;;;;;;;;;;4995951;28;20112;-70
2022/05/15 10:27:34;;;;;;;5.72;3.22;;;;;;;;;;4998597;28;20626;-70
2022/05/15 10:30:04;;;;;;;5.45;2.50;;;;;;;;;;5000568;28;20038;-70
2022/05/15 10:32:53;;;;;;;3.58;2.30;;;;;;;;;;5004411;28;20049;-70
2022/05/15 10:35:27;;;;;;;2.80;2.42;;;;;;;;;;5003868;28;20407;-70
2022/05/15 10:37:59;;;;;;;4.00;2.45;;;;;;;;;;5001742;28;20034;-70
2022/05/15 10:40:49;;;;;;;3.55;2.38;;;;;;;;;;5004403;28;20121;-70
2022/05/15 10:43:33;;;;;;;3.25;2.53;;;;;;;;;;5000855;28;20052;-71
2022/05/15 10:46:10;;;;;;;5.13;2.45;;;;;;;;;;5003952;28;20461;-70
2022/05/15 10:48:38;;;;;;;2.88;2.17;;;;;;;;;;5003325;28;20048;-70
2022/05/15 10:51:23;;;;;;;4.43;2.40;;;;;;;;;;5003762;28;20065;-70
2022/05/15 10:57:39;;;;;;;2.90;2.50;;;;;;;;;;5002843;28;20146;-70
2022/05/15 11:00:33;;;;;;;2.80;2.13;;;;;;;;;;5001515;28;20050;-70
2022/05/15 11:03:02;;;;;;;4.88;2.75;;;;;;;;;;4997197;28;20060;-70
2022/05/15 11:05:55;;;;;;;6.50;2.30;;;;;;;;;;5002007;28;20427;-71
2022/05/15 11:08:40;;;;;;;4.35;2.60;;;;;;;;;;5000489;28;20121;-70
2022/05/15 11:11:20;;;;;;;6.75;3.92;;;;;;;;;;4999071;28;20096;-70
2022/05/15 11:13:46;;;;;;;2.58;2.13;;;;;;;;;;5004108;28;20057;-70
2022/05/15 11:16:36;;;;;;;4.18;2.75;;;;;;;;;;5000647;28;20038;-70
2022/05/15 11:19:25;;;;;;;9.30;3.20;;;;;;;;;;5000997;28;20041;-70
2022/05/15 11:21:57;;;;;;;4.85;2.75;;;;;;;;;;5001309;28;20046;-70
2022/05/15 11:24:22;;;;;;;5.57;2.70;;;;;;;;;;5001970;28;20049;-71
2022/05/15 11:26:55;;;;;;;7.57;3.30;;;;;;;;;;5002829;28;20096;-70
2022/05/15 11:29:22;;;;;;;4.63;3.10;;;;;;;;;;5003658;28;20070;-70
2022/05/15 11:31:53;;;;;;;3.90;2.90;;;;;;;;;;5001984;28;20042;-70
2022/05/15 11:34:18;;;;;;;5.25;2.58;;;;;;;;;;4999858;28;20084;-70
2022/05/15 11:36:47;;;;;;;5.32;2.70;;;;;;;;;;5004142;28;20050;-70
2022/05/15 11:39:13;;;;;;;4.50;2.72;;;;;;;;;;5001268;28;20085;-70
2022/05/15 11:41:38;;;;;;;4.60;2.67;;;;;;;;;;5000460;28;20092;-71
2022/05/15 11:44:07;;;;;;;5.53;2.40;;;;;;;;;;4999052;28;20125;-70
2022/05/15 11:46:45;;;;;;;2.75;2.38;;;;;;;;;;5004052;28;20025;-70
2022/05/15 11:49:16;;;;;;;3.38;2.15;;;;;;;;;;5016390;28;20045;-71
2022/05/15 11:51:42;;;;;;;3.35;2.28;;;;;;;;;;5001816;28;20111;-70
2022/05/15 11:54:13;;;;;;;4.53;2.53;;;;;;;;;;4998078;28;20038;-71
2022/05/15 11:56:40;;;;;;;3.13;2.13;;;;;;;;;;5003648;28;20048;-70
2022/05/15 11:59:27;;;;;;;6.90;2.70;;;;;;;;;;4998985;28;20116;-70
2022/05/15 12:02:00;;;;;;;5.85;2.50;;;;;;;;;;5004770;28;20076;-70
2022/05/15 12:04:35;;;;;;;4.03;2.50;;;;;;;;;;5002670;28;20045;-70
2022/05/15 12:07:00;;;;;;;4.53;2.80;;;;;;;;;;5001256;28;20109;-70
2022/05/15 12:09:32;;;;;;;3.83;2.80;;;;;;;;;;5001717;28;20132;-70
2022/05/15 12:12:20;;;;;;;6.40;3.47;;;;;;;;;;5005370;28;20050;-70
2022/05/15 12:15:05;;;;;;;5.30;2.22;;;;;;;;;;4998601;28;20549;-70
2022/05/15 12:17:34;;;;;;;3.33;2.10;;;;;;;;;;5001823;28;20061;-70
2022/05/15 12:20:05;;;;;;;5.45;2.35;;;;;;;;;;5001555;28;20021;-71
2022/05/15 12:22:43;;;;;;;5.90;2.30;;;;;;;;;;5003118;28;20046;-70
2022/05/15 12:25:11;;;;;;;3.50;2.05;;;;;;;;;;4998562;28;20045;-70
2022/05/15 12:30:52;;;;;;;4.85;2.20;;;;;;;;;;5001288;28;20554;-70
2022/05/15 12:33:27;;;;;;;2.95;2.13;;;;;;;;;;5003211;28;20092;-70
2022/05/15 12:35:53;;;;;;;3.65;2.05;;;;;;;;;;5001413;28;20035;-70
2022/05/15 12:38:21;;;;;;;4.65;1.90;;;;;;;;;;5001234;28;20062;-71
2022/05/15 12:41:07;;;;;;;5.05;2.25;;;;;;;;;;5003450;28;20022;-70
2022/05/15 12:43:44;;;;;;;2.88;2.28;;;;;;;;;;5000143;28;20049;-71
2022/05/15 12:46:28;;;;;;;5.07;2.28;;;;;;;;;;4996847;28;20070;-71
2022/05/15 12:48:54;;;;;;;4.00;2.20;;;;;;;;;;4998709;28;20073;-70
2022/05/15 12:51:32;;;;;;;4.95;2.20;;;;;;;;;;4990263;28;20141;-70
2022/05/15 12:53:59;;;;;;;4.03;1.90;;;;;;;;;;4998800;28;20037;-70
2022/05/15 12:56:34;;;;;;;2.58;2.22;;;;;;;;;;5000256;28;20161;-70
2022/05/15 12:59:01;;;;;;;4.47;2.00;;;;;;;;;;4999626;28;20517;-71
2022/05/15 13:01:31;;;;;;;3.03;2.08;;;;;;;;;;4995532;28;20042;-71
2022/05/15 13:03:59;;;;;;;3.50;1.98;;;;;;;;;;4996351;28;20125;-70
2022/05/15 13:06:32;;;;;;;5.60;2.35;;;;;;;;;;4990790;28;20030;-70
2022/05/15 13:09:01;;;;;;;6.75;2.35;;;;;;;;;;5012185;28;20108;-71
2022/05/15 13:11:36;;;;;;;4.22;2.35;;;;;;;;;;5003423;28;20052;-70
2022/05/15 13:14:02;;;;;;;6.15;2.30;;;;;;;;;;4997335;28;20037;-70
2022/05/15 13:16:29;;;;;;;3.72;2.10;;;;;;;;;;5001673;28;20026;-70
2022/05/15 13:18:57;;;;;;;5.57;2.22;;;;;;;;;;5002176;28;20519;-70
2022/05/15 13:21:34;;;;;;;3.35;1.80;;;;;;;;;;5002086;28;20057;-71
2022/05/15 13:24:00;;;;;;;5.53;1.92;;;;;;;;;;4998421;28;20044;-71
2022/05/15 13:26:39;;;;;;;2.47;1.80;;;;;;;;;;5007112;28;20407;-71
2022/05/15 13:29:05;;;;;;;4.05;1.95;;;;;;;;;;5001778;28;20423;-71
2022/05/15 13:31:33;;;;;;;4.30;2.30;;;;;;;;;;5014825;28;20026;-71
2022/05/15 13:33:59;;;;;;;7.97;2.10;;;;;;;;;;4997791;28;20059;-71
2022/05/15 13:36:25;;;;;;;7.25;2.17;;;;;;;;;;4999058;28;20210;-71
2022/05/15 13:44:27;;;;;;;3.65;2.10;;;;;;;;;;5000768;28;20048;-71
2022/05/15 13:47:12;;;;;;;4.78;2.25;;;;;;;;;;5001883;28;20021;-71
2022/05/15 13:49:46;;;;;;;2.47;1.98;;;;;;;;;;5002190;28;20041;-71
2022/05/15 13:52:40;;;;;;;4.25;1.85;;;;;;;;;;5008299;28;20088;-71
2022/05/15 13:55:14;;;;;;;5.60;2.05;;;;;;;;;;4996190;28;20046;-70
2022/05/15 13:57:57;;;;;;;3.42;2.00;;;;;;;;;;4996957;28;20053;-71
2022/05/15 14:00:30;;;;;;;2.92;2.00;;;;;;;;;;5000054;28;20049;-71
2022/05/15 14:02:58;;;;;;;;;;;;;;;;;;5000578;28;20038;-71
2022/05/15 14:05:23;;;;;;;3.22;1.90;;;;;;;;;;5013751;28;19978;-71
2022/05/15 14:07:48;;;;;;;3.00;2.05;;;;;;;;;;5000750;28;20026;-71
2022/05/15 14:10:14;;;;;;;2.95;2.10;;;;;;;;;;4996605;28;20076;-71
2022/05/15 14:13:09;;;;;;;2.85;2.00;;;;;;;;;;4999253;28;20073;-71
2022/05/15 14:15:45;;;;;;;3.60;2.10;;;;;;;;;;4998841;28;20124;-71
2022/05/15 14:18:20;;;;;;;3.85;2.08;;;;;;;;;;4996747;28;20508;-71
2022/05/15 14:20:52;;;;;;;4.22;2.45;;;;;;;;;;4993457;28;20044;-70
2022/05/15 14:23:20;;;;;;;3.40;1.95;;;;;;;;;;4991651;28;20622;-70
2022/05/15 14:25:46;;;;;;;5.22;1.88;;;;;;;;;;4993614;28;20022;-70
2022/05/15 14:28:13;;;;;;;3.17;1.60;;;;;;;;;;4999964;28;20053;-70
2022/05/15 14:30:41;;;;;;;2.90;1.70;;;;;;;;;;5010831;28;20583;-71
2022/05/15 14:33:07;;;;;;;3.03;1.50;;;;;;;;;;4994671;28;20543;-70
2022/05/15 14:35:44;;;;;;;5.10;1.83;;;;;;;;;;4997799;28;20550;-70
2022/05/15 14:38:10;;;;;;;2.70;1.90;;;;;;;;;;4994454;28;20034;-70
2022/05/15 14:40:35;;;;;;;4.35;2.00;;;;;;;;;;5001337;28;20032;-70
2022/05/15 14:43:01;;;;;;;4.22;2.10;;;;;;;;;;4997625;28;20092;-70
2022/05/15 14:45:27;;;;;;;4.18;2.00;;;;;;;;;;4997715;28;20609;-71
2022/05/15 14:47:59;;;;;;;5.05;2.20;;;;;;;;;;4995851;28;20113;-71
2022/05/15 14:50:25;;;;;;;3.28;1.80;;;;;;;;;;4999446;28;20108;-71
2022/05/15 14:52:53;;;;;;;4.28;2.08;;;;;;;;;;4999247;28;20027;-71
2022/05/15 14:58:02;;;;;;;2.75;1.95;;;;;;;;;;4995244;28;20052;-71
2022/05/15 15:00:31;;;;;;;3.47;2.10;;;;;;;;;;4995904;28;20042;-70
2022/05/15 15:02:57;;;;;;;2.78;2.15;;;;;;;;;;5000410;28;20579;-70
2022/05/15 15:05:22;;;;;;;6.00;2.33;;;;;;;;;;4997331;28;20116;-70
2022/05/15 15:07:47;;;;;;;2.75;2.08;;;;;;;;;;4998622;28;20034;-71
2022/05/15 15:10:13;;;;;;;3.10;2.20;;;;;;;;;;4998744;28;20061;-70
2022/05/15 15:12:38;;;;;;;5.05;2.45;;;;;;;;;;5000751;28;20115;-70
2022/05/15 15:15:04;;;;;;;3.15;2.05;;;;;;;;;;5004011;28;20593;-70
2022/05/15 15:17:30;;;;;;;3.20;2.00;;;;;;;;;;5000317;28;20052;-70